Time;durP1;ratioP1;P1;durP2;ratioP2;P2;SDS_P1;SDS_P2;PMS_P1;PMS_P2;Temp;Humidity;BMP_temperature;BMP_pressure;BME280_temperature;BME280_humidity;BME280_pressure;Samples;Min_cycle;Max_cycle;Signal;HPM_P1;HPM_P2
2021/09/30 00:01:14;;;;;;;2.28;1.00;;;11.20;83.40;;;;;;5009384;28;20075;-75
2021/09/30 00:03:39;;;;;;;1.63;0.88;;;11.10;83.40;;;;;;5009909;28;20067;-75
2021/09/30 00:06:05;;;;;;;1.08;0.90;;;11.10;83.60;;;;;;5009169;28;20391;-76
2021/09/30 00:08:31;;;;;;;2.10;0.95;;;11.10;83.60;;;;;;5008658;28;20030;-75
2021/09/30 00:11:05;;;;;;;1.90;0.90;;;11.10;83.70;;;;;;5008664;28;20070;-76
2021/09/30 00:35:00;;;;;;;5.30;1.33;;;11.00;83.90;;;;;;5009383;28;20400;-76
2021/09/30 00:45:32;;;;;;;2.30;1.00;;;10.90;83.90;;;;;;5009558;28;20144;-77
2021/09/30 00:48:16;;;;;;;2.72;1.08;;;10.90;83.90;;;;;;5008629;28;20052;-77
2021/09/30 00:51:03;;;;;;;1.38;1.13;;;10.90;83.90;;;;;;5009021;28;20091;-77
2021/09/30 00:53:57;;;;;;;2.78;1.15;;;10.80;84.00;;;;;;5004808;28;20500;-77
2021/09/30 01:40:25;;;;;;;2.47;1.48;;;10.70;84.70;;;;;;5008221;28;20040;-77
2021/09/30 01:58:28;;;;;;;4.80;2.67;;;10.60;84.90;;;;;;5007919;28;20060;-77
2021/09/30 02:21:04;;;;;;;5.22;2.78;;;10.40;85.50;;;;;;5008353;28;20400;-76
2021/09/30 02:26:38;;;;;;;3.25;2.10;;;10.30;85.90;;;;;;5007225;28;20041;-76
2021/09/30 02:59:07;;;;;;;4.60;2.60;;;10.10;86.10;;;;;;5010391;28;20166;-76
2021/09/30 03:01:34;;;;;;;8.02;3.22;;;10.10;86.00;;;;;;5010838;28;20087;-77
2021/09/30 03:04:01;;;;;;;6.88;3.22;;;10.10;86.10;;;;;;5010675;28;20564;-77
2021/09/30 03:06:28;;;;;;;5.05;2.22;;;10.10;86.10;;;;;;5009764;28;20052;-76
2021/09/30 03:08:56;;;;;;;5.18;2.60;;;10.10;86.10;;;;;;5009613;28;20512;-76
2021/09/30 03:11:24;;;;;;;4.57;2.50;;;10.10;86.10;;;;;;5010701;28;20018;-77
2021/09/30 03:13:51;;;;;;;6.50;3.13;;;10.10;86.10;;;;;;5010684;28;20106;-76
2021/09/30 03:16:27;;;;;;;4.00;2.20;;;10.00;86.00;;;;;;5010090;28;20476;-77
2021/09/30 03:19:03;;;;;;;3.33;2.10;;;10.00;86.00;;;;;;5006638;28;20041;-77
2021/09/30 03:24:15;;;;;;;4.38;2.20;;;10.00;86.00;;;;;;5010383;28;20037;-76
2021/09/30 03:26:43;;;;;;;4.75;2.15;;;10.00;85.90;;;;;;5009742;28;20103;-77
2021/09/30 03:29:09;;;;;;;4.97;2.22;;;10.00;85.90;;;;;;4998064;28;20051;-77
2021/09/30 03:31:35;;;;;;;3.00;1.80;;;10.00;85.90;;;;;;5010119;28;20495;-76
2021/09/30 03:34:02;;;;;;;3.47;2.08;;;10.00;85.90;;;;;;5010603;28;20108;-77
2021/09/30 03:36:28;;;;;;;5.57;2.10;;;10.00;85.90;;;;;;5009904;28;20029;-77
2021/09/30 03:38:54;;;;;;;4.00;2.38;;;10.00;85.90;;;;;;5009529;28;20480;-77
2021/09/30 03:41:20;;;;;;;4.97;2.58;;;10.00;85.90;;;;;;5009894;28;20030;-76
2021/09/30 03:43:45;;;;;;;6.25;2.40;;;10.00;85.80;;;;;;5009834;28;20037;-76
2021/09/30 03:46:11;;;;;;;4.50;2.30;;;10.00;85.80;;;;;;5010095;28;20026;-76
2021/09/30 03:48:37;;;;;;;4.07;2.20;;;10.00;85.80;;;;;;5009595;28;20030;-77
2021/09/30 03:51:16;;;;;;;3.63;2.20;;;9.90;85.90;;;;;;5010151;28;20063;-76
2021/09/30 03:57:02;;;;;;;5.22;2.47;;;9.90;85.80;;;;;;5009758;28;20110;-76
2021/09/30 03:59:19;;;;;;;4.57;2.20;;;10.00;85.90;;;;;;5004573;28;20396;-76
2021/09/30 04:01:48;;;;;;;5.80;1.90;;;10.00;85.80;;;;;;5010033;28;20049;-76
2021/09/30 04:04:14;;;;;;;8.57;2.03;;;10.00;85.80;;;;;;5009547;28;20099;-76
2021/09/30 04:06:40;;;;;;;3.80;1.90;;;10.00;85.80;;;;;;5009909;28;20512;-76
2021/09/30 04:09:06;;;;;;;2.47;1.58;;;10.00;85.80;;;;;;5009101;28;20018;-75
2021/09/30 04:11:31;;;;;;;3.70;1.70;;;10.00;85.70;;;;;;5009870;28;20036;-76
2021/09/30 04:13:57;;;;;;;6.60;2.35;;;10.00;85.70;;;;;;5009414;28;20079;-76
2021/09/30 04:16:26;;;;;;;4.45;2.00;;;9.90;85.60;;;;;;5009807;28;20026;-76
2021/09/30 04:18:52;;;;;;;5.13;1.83;;;9.90;85.60;;;;;;5008632;28;20022;-76
2021/09/30 04:21:18;;;;;;;5.80;1.90;;;9.90;85.60;;;;;;5009527;28;20058;-77
2021/09/30 04:23:43;;;;;;;4.60;1.90;;;9.90;85.60;;;;;;5009572;28;20432;-76
2021/09/30 04:26:09;;;;;;;5.53;1.90;;;9.90;85.60;;;;;;5009557;28;20030;-76
2021/09/30 04:28:35;;;;;;;4.28;2.13;;;9.90;85.50;;;;;;5009485;28;20385;-77
2021/09/30 04:31:01;;;;;;;7.38;3.15;;;9.90;85.60;;;;;;5009570;28;20063;-77
2021/09/30 04:33:27;;;;;;;3.63;2.10;;;9.90;85.60;;;;;;5009503;28;20029;-77
2021/09/30 04:35:52;;;;;;;9.18;3.17;;;9.90;85.70;;;;;;5008977;28;20076;-77
2021/09/30 04:38:18;;;;;;;5.90;2.63;;;9.80;85.60;;;;;;5008969;28;20423;-76
2021/09/30 04:40:43;;;;;;;3.60;1.92;;;9.80;85.60;;;;;;5007888;28;20030;-77
2021/09/30 04:43:09;;;;;;;4.07;2.08;;;9.80;85.60;;;;;;5008305;28;20030;-76
2021/09/30 04:45:34;;;;;;;5.13;2.47;;;9.80;85.60;;;;;;5009339;28;20018;-77
2021/09/30 04:48:00;;;;;;;3.40;1.80;;;9.80;85.70;;;;;;5008793;28;20401;-77
2021/09/30 04:50:26;;;;;;;6.43;2.70;;;9.80;85.60;;;;;;5009102;28;20044;-76
2021/09/30 04:52:53;;;;;;;4.22;2.17;;;9.80;85.70;;;;;;5007841;28;20022;-76
2021/09/30 04:55:19;;;;;;;6.25;2.35;;;9.80;85.80;;;;;;4999620;28;20033;-75
2021/09/30 04:57:44;;;;;;;7.22;2.50;;;9.70;85.70;;;;;;5008797;28;20101;-76
2021/09/30 05:00:11;;;;;;;4.50;2.10;;;9.80;85.80;;;;;;5008734;28;20662;-76
2021/09/30 05:02:36;;;;;;;2.40;1.63;;;9.70;85.80;;;;;;5009178;28;20059;-76
2021/09/30 05:05:02;;;;;;;5.78;2.65;;;9.70;85.70;;;;;;5008360;28;20543;-76
2021/09/30 05:07:28;;;;;;;4.43;2.45;;;9.70;85.70;;;;;;5000426;28;20039;-76
2021/09/30 05:09:53;;;;;;;7.72;2.83;;;9.70;85.70;;;;;;5008802;28;20052;-76
2021/09/30 05:12:21;;;;;;;7.45;2.53;;;9.70;85.70;;;;;;5008188;28;20083;-76
2021/09/30 05:14:47;;;;;;;3.55;2.00;;;9.70;85.70;;;;;;5008842;28;20121;-77
2021/09/30 05:17:13;;;;;;;4.07;1.92;;;9.70;85.70;;;;;;5008542;28;20022;-76
2021/09/30 05:19:38;;;;;;;6.97;2.55;;;9.70;85.70;;;;;;5008582;28;20539;-76
2021/09/30 05:22:04;;;;;;;7.22;2.70;;;9.70;85.70;;;;;;5007887;28;20036;-78
2021/09/30 05:24:30;;;;;;;4.13;2.10;;;9.70;85.80;;;;;;5008328;28;20022;-77
2021/09/30 05:26:55;;;;;;;4.25;2.00;;;9.70;85.80;;;;;;5008019;28;20026;-77
2021/09/30 05:29:20;;;;;;;5.60;2.60;;;9.70;85.80;;;;;;5008103;28;20041;-77
2021/09/30 05:31:46;;;;;;;4.97;1.90;;;9.70;85.70;;;;;;5007183;28;20080;-78
2021/09/30 05:34:11;;;;;;;5.07;2.33;;;9.70;85.80;;;;;;5008224;28;20030;-77
2021/09/30 05:36:37;;;;;;;5.22;2.22;;;9.60;85.80;;;;;;5008754;28;20124;-77
2021/09/30 05:39:03;;;;;;;4.82;2.35;;;9.60;85.70;;;;;;4997730;28;20022;-77
2021/09/30 05:41:31;;;;;;;4.20;2.33;;;9.70;85.70;;;;;;5027389;28;20045;-77
2021/09/30 05:44:00;;;;;;;5.28;2.50;;;9.70;85.70;;;;;;5010732;28;20026;-77
2021/09/30 05:46:36;;;;;;;4.15;2.45;;;9.70;85.60;;;;;;5006508;28;20101;-74
2021/09/30 05:49:10;;;;;;;4.88;2.38;;;9.70;85.50;;;;;;5006144;28;20460;-75
2021/09/30 05:51:37;;;;;;;6.32;2.55;;;9.70;85.50;;;;;;5003277;28;20101;-78
2021/09/30 05:54:03;;;;;;;3.45;1.98;;;9.70;85.40;;;;;;5004060;28;20121;-77
2021/09/30 05:56:28;;;;;;;5.50;2.50;;;9.70;85.40;;;;;;5006774;28;20097;-77
2021/09/30 05:58:54;;;;;;;7.57;3.05;;;9.70;85.40;;;;;;4998817;28;20118;-77
2021/09/30 06:10:11;;;;;;;3.97;2.20;;;9.70;85.30;;;;;;5015918;28;20122;-77
2021/09/30 06:12:17;;;;;;;4.90;2.40;;;9.70;85.20;;;;;;5004477;28;20033;-76
2021/09/30 06:14:45;;;;;;;4.95;2.42;;;9.70;85.20;;;;;;5006332;28;21871;-77
2021/09/30 06:17:10;;;;;;;5.55;2.40;;;9.70;85.20;;;;;;5006955;28;20104;-78
2021/09/30 06:19:36;;;;;;;3.60;2.20;;;9.80;85.10;;;;;;5014911;28;20112;-78
2021/09/30 06:22:04;;;;;;;4.07;2.42;;;9.80;85.10;;;;;;5008337;28;20472;-78
2021/09/30 06:24:30;;;;;;;3.95;2.08;;;9.90;85.00;;;;;;5010648;28;20154;-77
2021/09/30 06:26:56;;;;;;;5.53;2.50;;;9.90;84.90;;;;;;5009181;28;20041;-78
2021/09/30 06:29:22;;;;;;;5.53;2.45;;;10.00;84.80;;;;;;5009876;28;20018;-77
2021/09/30 06:31:48;;;;;;;4.43;2.40;;;10.00;84.70;;;;;;5041658;28;20045;-77
2021/09/30 06:34:13;;;;;;;7.53;3.00;;;10.00;84.60;;;;;;5003582;28;20033;-77
2021/09/30 06:36:39;;;;;;;5.47;2.75;;;10.10;84.50;;;;;;5010604;28;20026;-77
2021/09/30 06:39:05;;;;;;;4.32;2.00;;;10.10;84.30;;;;;;5019303;28;20030;-76
2021/09/30 06:41:31;;;;;;;5.43;2.40;;;10.10;84.30;;;;;;5007905;28;20140;-76
2021/09/30 06:43:56;;;;;;;2.70;1.90;;;10.20;84.20;;;;;;5007974;28;20034;-77
2021/09/30 06:46:23;;;;;;;4.95;2.22;;;10.20;84.10;;;;;;5009133;28;20182;-76
2021/09/30 06:48:48;;;;;;;6.18;2.55;;;10.30;84.10;;;;;;5002157;28;20018;-77
2021/09/30 06:51:14;;;;;;;4.20;2.00;;;10.40;84.00;;;;;;5006487;28;20422;-77
2021/09/30 06:53:40;;;;;;;5.45;2.58;;;10.50;83.90;;;;;;5006672;28;20028;-78
2021/09/30 06:56:09;;;;;;;4.82;2.33;;;10.50;83.70;;;;;;5007457;28;20022;-78
2021/09/30 06:58:47;;;;;;;3.67;2.17;;;10.60;83.50;;;;;;5007739;28;20056;-79
2021/09/30 07:01:16;;;;;;;5.50;2.95;;;10.70;83.40;;;;;;5002704;28;20521;-79
2021/09/30 07:03:41;;;;;;;4.32;2.05;;;10.70;83.80;;;;;;5016360;28;20090;-77
2021/09/30 07:06:07;;;;;;;6.65;2.55;;;10.80;83.00;;;;;;5027773;28;20037;-77
2021/09/30 07:08:33;;;;;;;4.32;2.03;;;10.90;82.90;;;;;;5014247;28;20030;-78
2021/09/30 07:10:58;;;;;;;3.20;1.98;;;10.90;82.70;;;;;;5013754;28;20441;-79
2021/09/30 07:13:25;;;;;;;5.20;2.42;;;11.00;82.70;;;;;;5014286;28;20472;-77
2021/09/30 07:15:51;;;;;;;6.28;2.40;;;11.10;82.60;;;;;;5003961;28;20502;-77
2021/09/30 07:18:19;;;;;;;6.60;2.38;;;11.20;82.40;;;;;;5009282;28;20067;-77
2021/09/30 07:20:47;;;;;;;7.45;3.03;;;11.20;82.30;;;;;;5011286;28;20162;-78
2021/09/30 07:23:13;;;;;;;7.13;2.40;;;11.20;81.90;;;;;;5016916;28;20051;-77
2021/09/30 07:25:39;;;;;;;3.75;2.25;;;11.20;82.50;;;;;;5004682;28;20030;-76
2021/09/30 07:28:04;;;;;;;5.10;2.30;;;11.40;82.60;;;;;;5008971;28;20075;-79
2021/09/30 07:30:32;;;;;;;5.20;2.60;;;11.50;81.70;;;;;;5008736;28;20037;-76
2021/09/30 07:32:58;;;;;;;9.10;2.67;;;11.50;81.60;;;;;;5004008;28;20637;-77
2021/09/30 07:35:25;;;;;;;5.35;2.53;;;11.50;82.00;;;;;;5004045;28;20033;-76
2021/09/30 07:37:52;;;;;;;15.57;11.23;;;11.50;81.10;;;;;;5007713;28;20428;-77
2021/09/30 07:40:18;;;;;;;9.88;5.95;;;11.50;80.90;;;;;;5009403;28;20045;-76
2021/09/30 07:42:44;;;;;;;7.82;4.20;;;11.60;81.10;;;;;;5008689;28;20021;-78
2021/09/30 07:45:10;;;;;;;6.25;3.58;;;11.60;81.00;;;;;;5010561;28;20072;-77
2021/09/30 07:47:35;;;;;;;5.43;2.50;;;11.70;80.80;;;;;;5003737;28;20038;-78
2021/09/30 07:50:03;;;;;;;6.70;2.00;;;11.70;80.60;;;;;;5007100;28;20037;-78
2021/09/30 07:52:29;;;;;;;4.53;1.90;;;11.80;80.60;;;;;;5007915;28;20521;-78
2021/09/30 07:54:55;;;;;;;4.68;2.22;;;11.90;81.10;;;;;;5008099;28;20041;-77
2021/09/30 07:57:20;;;;;;;4.90;2.40;;;11.90;80.30;;;;;;5004043;28;20025;-77
2021/09/30 07:59:46;;;;;;;6.72;2.53;;;12.00;80.10;;;;;;5009968;28;20407;-78
2021/09/30 08:02:12;;;;;;;3.90;2.45;;;12.00;80.10;;;;;;5005805;28;20060;-77
2021/09/30 08:04:37;;;;;;;5.13;2.33;;;12.10;80.00;;;;;;5007839;28;20036;-78
2021/09/30 08:07:05;;;;;;;7.47;2.60;;;12.10;79.60;;;;;;5007530;28;20022;-78
2021/09/30 08:09:34;;;;;;;6.82;2.42;;;12.20;79.50;;;;;;5001827;28;20030;-78
2021/09/30 08:12:02;;;;;;;5.50;2.45;;;12.20;79.30;;;;;;5006383;28;20037;-79
2021/09/30 08:14:27;;;;;;;4.13;2.05;;;12.20;78.90;;;;;;5006993;28;20071;-76
2021/09/30 08:16:54;;;;;;;4.30;2.10;;;12.30;78.90;;;;;;5003903;28;20034;-78
2021/09/30 08:19:19;;;;;;;4.35;2.10;;;12.40;78.70;;;;;;5004885;28;20042;-79
2021/09/30 08:21:45;;;;;;;6.30;2.47;;;12.50;78.60;;;;;;5006674;28;20428;-80
2021/09/30 08:24:15;;;;;;;3.55;1.80;;;12.50;78.20;;;;;;5004407;28;20034;-80
2021/09/30 08:26:43;;;;;;;3.75;1.63;;;12.60;78.10;;;;;;5008046;28;20026;-75
2021/09/30 08:29:09;;;;;;;2.92;1.50;;;12.60;77.80;;;;;;5007003;28;20033;-77
2021/09/30 08:31:34;;;;;;;4.95;2.28;;;12.70;77.80;;;;;;5006934;28;20026;-78
2021/09/30 08:34:00;;;;;;;4.05;2.00;;;12.80;77.50;;;;;;5002584;28;20064;-77
2021/09/30 08:36:27;;;;;;;6.10;2.05;;;12.90;77.20;;;;;;5008354;28;20388;-78
2021/09/30 08:38:52;;;;;;;6.30;2.40;;;13.00;77.10;;;;;;5003812;28;20488;-75
2021/09/30 08:41:22;;;;;;;5.25;2.17;;;13.00;76.80;;;;;;5007838;28;20026;-76
2021/09/30 08:43:49;;;;;;;4.18;2.30;;;13.10;76.80;;;;;;5003105;28;20079;-76
2021/09/30 08:46:15;;;;;;;5.22;2.15;;;13.20;76.70;;;;;;5012886;28;20026;-75
2021/09/30 08:48:41;;;;;;;5.45;2.22;;;13.20;76.40;;;;;;5006083;28;20038;-76
2021/09/30 08:51:11;;;;;;;4.03;1.90;;;13.20;76.30;;;;;;5005853;28;20033;-76
2021/09/30 08:53:37;;;;;;;4.25;2.10;;;13.20;76.20;;;;;;5007700;28;20082;-76
2021/09/30 08:56:05;;;;;;;4.47;1.98;;;13.30;76.10;;;;;;5007094;28;20034;-76
2021/09/30 08:58:31;;;;;;;4.82;2.00;;;13.30;76.00;;;;;;5006137;28;20171;-74
2021/09/30 09:00:58;;;;;;;3.08;1.75;;;13.40;76.00;;;;;;5006376;28;20029;-75
2021/09/30 09:03:37;;;;;;;3.25;2.08;;;13.40;75.90;;;;;;5007197;28;20033;-75
2021/09/30 09:06:04;;;;;;;4.95;2.30;;;13.50;76.40;;;;;;5017245;28;20380;-77
2021/09/30 09:08:30;;;;;;;3.10;1.90;;;13.50;75.50;;;;;;5012279;28;20032;-76
2021/09/30 09:10:59;;;;;;;6.10;2.33;;;13.60;75.40;;;;;;5015915;28;20042;-77
2021/09/30 09:13:25;;;;;;;5.72;1.90;;;13.70;75.10;;;;;;5005552;28;20489;-77
2021/09/30 09:15:57;;;;;;;6.13;2.13;;;13.80;75.00;;;;;;5006488;28;20026;-76
2021/09/30 09:18:32;;;;;;;4.28;2.20;;;13.80;74.80;;;;;;5005506;28;20041;-75
2021/09/30 09:21:13;;;;;;;3.25;1.67;;;13.90;74.60;;;;;;5013639;28;21684;-75
2021/09/30 09:23:52;;;;;;;4.03;1.75;;;14.00;74.40;;;;;;5006915;28;20113;-77
2021/09/30 09:26:32;;;;;;;3.88;1.88;;;14.10;74.20;;;;;;5005611;28;20030;-77
2021/09/30 09:29:13;;;;;;;4.43;1.98;;;14.20;74.20;;;;;;5106530;27;20038;-76
2021/09/30 09:31:44;;;;;;;4.70;2.15;;;14.30;74.20;;;;;;5007502;28;20676;-77
2021/09/30 09:34:27;;;;;;;5.65;2.45;;;14.30;73.30;;;;;;5015964;28;20018;-75
2021/09/30 09:37:14;;;;;;;3.92;1.90;;;14.40;73.00;;;;;;5004582;28;20054;-77
2021/09/30 09:39:39;;;;;;;3.05;1.65;;;14.40;72.80;;;;;;5006084;28;20026;-77
2021/09/30 09:42:16;;;;;;;6.25;2.00;;;14.40;72.60;;;;;;5006691;28;20025;-77
2021/09/30 09:44:58;;;;;;;3.97;1.95;;;14.40;72.50;;;;;;5005741;28;20428;-78
2021/09/30 09:47:29;;;;;;;4.40;1.87;;;14.40;72.40;;;;;;5003677;28;20533;-79
2021/09/30 09:50:20;;;;;;;3.70;1.50;;;14.50;72.50;;;;;;5006880;28;20124;-77
2021/09/30 09:53:02;;;;;;;4.35;2.13;;;14.50;72.60;;;;;;5003245;28;20034;-79
2021/09/30 09:55:31;;;;;;;3.58;1.88;;;14.50;72.20;;;;;;5005497;28;20030;-79
2021/09/30 09:58:02;;;;;;;4.45;2.03;;;14.50;72.20;;;;;;5005961;28;20026;-80
2021/09/30 10:00:29;;;;;;;6.00;1.90;;;14.50;71.80;;;;;;5006484;28;20484;-77
2021/09/30 10:02:56;;;;;;;3.72;2.08;;;14.50;71.70;;;;;;5008298;28;20034;-78
2021/09/30 10:05:23;;;;;;;3.40;1.60;;;14.60;71.40;;;;;;5005267;28;20037;-77
2021/09/30 10:07:49;;;;;;;4.50;2.00;;;14.70;71.50;;;;;;5007257;28;20392;-78
2021/09/30 10:10:16;;;;;;;4.32;1.60;;;14.80;71.00;;;;;;5006050;28;20042;-78
2021/09/30 10:12:45;;;;;;;4.10;1.77;;;14.80;70.60;;;;;;5005257;28;20022;-77
2021/09/30 10:15:13;;;;;;;5.05;2.05;;;14.80;70.10;;;;;;5034923;28;20033;-77
2021/09/30 10:17:39;;;;;;;6.70;2.33;;;14.90;69.90;;;;;;5009255;28;20041;-77
2021/09/30 10:20:07;;;;;;;3.75;1.80;;;14.90;68.80;;;;;;5034037;28;20817;-76
2021/09/30 10:22:33;;;;;;;4.68;1.83;;;15.00;68.80;;;;;;5005687;28;20033;-79
2021/09/30 10:24:58;;;;;;;4.43;1.70;;;15.00;68.40;;;;;;5003715;28;20029;-79
2021/09/30 10:27:25;;;;;;;5.32;1.80;;;15.10;68.30;;;;;;5009715;28;20026;-79
2021/09/30 10:29:50;;;;;;;4.30;1.75;;;15.30;68.60;;;;;;5028758;28;20391;-75
2021/09/30 10:32:18;;;;;;;5.38;1.75;;;15.20;67.50;;;;;;5011453;28;20026;-78
2021/09/30 10:34:48;;;;;;;3.40;1.58;;;15.30;67.40;;;;;;5009693;28;20041;-75
2021/09/30 10:37:26;;;;;;;3.67;1.50;;;15.30;67.00;;;;;;5004895;28;20030;-76
2021/09/30 10:40:18;;;;;;;3.80;1.40;;;15.40;67.00;;;;;;5014282;28;20025;-75
2021/09/30 10:42:58;;;;;;;6.87;1.50;;;15.40;67.00;;;;;;5002244;28;20022;-76
2021/09/30 10:45:26;;;;;;;2.67;1.30;;;15.60;66.80;;;;;;5008733;28;20388;-77
2021/09/30 10:48:03;;;;;;;3.13;1.30;;;15.60;66.40;;;;;;5013298;28;20036;-77
2021/09/30 10:50:48;;;;;;;5.47;1.55;;;15.70;65.60;;;;;;5008166;28;20045;-79
2021/09/30 10:53:13;;;;;;;4.60;1.30;;;15.80;65.30;;;;;;5010069;28;20151;-76
2021/09/30 10:55:39;;;;;;;5.07;1.50;;;15.90;65.10;;;;;;5014246;28;20108;-77
2021/09/30 10:58:23;;;;;;;4.43;1.45;;;15.90;64.50;;;;;;5014655;28;20026;-75
2021/09/30 11:00:52;;;;;;;3.00;1.25;;;15.80;64.50;;;;;;5010025;28;20022;-75
2021/09/30 11:03:22;;;;;;;3.50;1.33;;;15.70;64.20;;;;;;5009836;28;20231;-74
2021/09/30 11:06:15;;;;;;;3.90;1.30;;;15.60;64.40;;;;;;5014405;28;20101;-75
2021/09/30 11:08:43;;;;;;;4.10;1.25;;;15.70;64.80;;;;;;5004916;28;20139;-75
2021/09/30 11:11:10;;;;;;;4.40;1.20;;;15.80;65.10;;;;;;5046133;28;20080;-77
2021/09/30 11:13:55;;;;;;;2.47;1.33;;;15.90;64.80;;;;;;5013292;28;20116;-74
2021/09/30 11:16:33;;;;;;;2.83;1.20;;;15.90;64.10;;;;;;5031926;28;20029;-74
2021/09/30 11:19:00;;;;;;;4.72;1.30;;;16.00;64.00;;;;;;5013088;28;20105;-74
2021/09/30 11:21:31;;;;;;;2.88;1.17;;;16.10;63.60;;;;;;5013363;28;20030;-74
2021/09/30 11:24:00;;;;;;;4.53;1.45;;;16.10;63.40;;;;;;5004335;28;20369;-74
2021/09/30 11:26:26;;;;;;;4.72;1.40;;;16.10;62.30;;;;;;5010248;28;20066;-75
2021/09/30 11:28:53;;;;;;;5.03;1.42;;;16.10;62.00;;;;;;5008920;28;20041;-77
2021/09/30 11:31:30;;;;;;;2.58;1.00;;;16.10;62.30;;;;;;5011959;28;20038;-76
2021/09/30 11:33:58;;;;;;;5.55;2.58;;;16.20;62.70;;;;;;5008638;28;20034;-75
2021/09/30 11:36:42;;;;;;;27.02;20.15;;;16.20;61.40;;;;;;5017365;28;20053;-76
2021/09/30 11:39:08;;;;;;;9.13;5.95;;;16.10;61.20;;;;;;5034567;28;20060;-75
2021/09/30 11:41:36;;;;;;;14.55;10.23;;;16.10;61.30;;;;;;5010556;28;20022;-74
2021/09/30 11:44:03;;;;;;;8.55;5.60;;;16.10;61.20;;;;;;5014246;28;20069;-74
2021/09/30 11:46:34;;;;;;;9.75;7.47;;;16.10;61.50;;;;;;5012729;28;20034;-75
2021/09/30 11:49:00;;;;;;;6.40;5.60;;;16.10;61.50;;;;;;5063044;28;20037;-74
2021/09/30 11:51:50;;;;;;;7.15;5.90;;;16.20;61.70;;;;;;5020881;28;20520;-74
2021/09/30 11:54:21;;;;;;;8.02;5.80;;;16.20;61.30;;;;;;5017587;28;20057;-74
2021/09/30 11:56:55;;;;;;;9.20;4.73;;;16.10;60.80;;;;;;5008912;28;20414;-76
2021/09/30 11:59:23;;;;;;;7.63;4.40;;;16.10;61.20;;;;;;5019778;28;20037;-76
2021/09/30 12:01:57;;;;;;;7.03;2.78;;;16.10;60.70;;;;;;5050518;28;20094;-75
2021/09/30 12:04:36;;;;;;;8.60;6.50;;;16.10;60.40;;;;;;5008525;28;20034;-75
2021/09/30 12:07:03;;;;;;;6.38;3.22;;;16.10;60.10;;;;;;5011523;28;20018;-75
2021/09/30 12:09:32;;;;;;;13.73;12.18;;;16.10;59.70;;;;;;5032895;28;20082;-75
2021/09/30 12:12:00;;;;;;;10.27;5.70;;;16.10;59.90;;;;;;5010627;28;20042;-74
2021/09/30 12:14:41;;;;;;;9.60;7.82;;;16.10;59.60;;;;;;5003893;28;20041;-77
2021/09/30 12:17:17;;;;;;;9.30;6.65;;;16.10;59.90;;;;;;5015293;28;20044;-77
2021/09/30 12:19:56;;;;;;;12.00;7.63;;;16.10;59.30;;;;;;5027241;28;20057;-75
2021/09/30 12:22:32;;;;;;;12.57;9.55;;;16.10;59.10;;;;;;5056415;28;20084;-75
2021/09/30 12:25:00;;;;;;;6.53;4.85;;;16.10;58.10;;;;;;5025681;28;20038;-75
2021/09/30 12:27:32;;;;;;;10.48;7.40;;;16.10;58.30;;;;;;5026123;28;20028;-77
2021/09/30 12:30:09;;;;;;;13.70;9.40;;;16.10;58.40;;;;;;5008309;28;20080;-76
2021/09/30 12:32:37;;;;;;;4.47;2.45;;;16.20;58.70;;;;;;5007403;28;20029;-75
2021/09/30 12:35:16;;;;;;;5.55;3.92;;;16.20;58.50;;;;;;5007227;28;20033;-76
2021/09/30 12:37:47;;;;;;;4.35;3.63;;;16.20;58.80;;;;;;5016767;28;20044;-75
2021/09/30 12:40:21;;;;;;;3.90;2.50;;;16.20;58.60;;;;;;5016806;28;20022;-75
2021/09/30 12:43:11;;;;;;;4.90;2.60;;;16.30;58.70;;;;;;5016853;28;20470;-75
2021/09/30 12:46:00;;;;;;;2.97;2.10;;;16.30;58.10;;;;;;5011474;28;20068;-74
2021/09/30 12:48:32;;;;;;;4.60;3.40;;;16.20;57.00;;;;;;5025510;28;20751;-75
2021/09/30 12:51:13;;;;;;;3.30;2.13;;;16.10;57.40;;;;;;5018527;28;20450;-73
2021/09/30 12:53:48;;;;;;;3.28;1.40;;;16.10;57.30;;;;;;5012042;28;20023;-74
2021/09/30 12:56:17;;;;;;;4.85;1.40;;;16.10;57.80;;;;;;5017110;28;20539;-73
2021/09/30 12:58:49;;;;;;;3.50;1.92;;;16.20;58.00;;;;;;5022902;28;20574;-75
2021/09/30 13:01:26;;;;;;;5.10;1.65;;;16.20;57.80;;;;;;5003269;28;20430;-76
2021/09/30 13:04:01;;;;;;;3.47;1.20;;;16.10;57.40;;;;;;5009184;28;20030;-76
2021/09/30 13:06:27;;;;;;;2.35;1.38;;;16.20;58.00;;;;;;5019995;28;20026;-77
2021/09/30 13:08:52;;;;;;;2.03;1.10;;;16.30;58.30;;;;;;5007764;28;20048;-76
2021/09/30 13:11:29;;;;;;;4.32;2.13;;;16.30;58.40;;;;;;5028068;28;20502;-76
2021/09/30 13:14:18;;;;;;;2.95;1.10;;;16.40;58.10;;;;;;5007393;28;20036;-76
2021/09/30 13:16:49;;;;;;;3.85;1.60;;;16.30;58.30;;;;;;5015770;28;20030;-75
2021/09/30 13:19:16;;;;;;;6.72;1.85;;;16.30;58.40;;;;;;5008902;28;20019;-77
2021/09/30 13:21:55;;;;;;;3.83;2.30;;;16.20;58.60;;;;;;5008194;28;20037;-76
2021/09/30 13:24:21;;;;;;;4.55;1.35;;;16.10;58.90;;;;;;5014329;28;20551;-75
2021/09/30 13:26:46;;;;;;;2.45;0.90;;;16.20;59.20;;;;;;5021943;28;20091;-75
2021/09/30 13:29:12;;;;;;;3.80;1.00;;;16.20;59.40;;;;;;5011231;28;20086;-78
2021/09/30 13:31:37;;;;;;;3.97;1.00;;;16.20;59.20;;;;;;5019633;28;20128;-78
2021/09/30 13:34:03;;;;;;;3.60;1.20;;;16.20;59.40;;;;;;5008089;28;20534;-76
2021/09/30 13:36:31;;;;;;;4.70;1.40;;;16.10;59.50;;;;;;5055101;28;20025;-76
2021/09/30 13:38:57;;;;;;;2.47;1.00;;;16.10;59.40;;;;;;5009007;28;20022;-78
2021/09/30 13:41:22;;;;;;;4.28;1.45;;;16.10;59.70;;;;;;5026249;28;20253;-78
2021/09/30 13:43:48;;;;;;;2.60;1.20;;;16.10;59.70;;;;;;5042952;28;20033;-77
2021/09/30 13:46:14;;;;;;;5.45;1.52;;;16.10;60.00;;;;;;5025884;28;20018;-78
2021/09/30 13:48:40;;;;;;;6.35;2.60;;;16.20;60.10;;;;;;5011021;28;20476;-76
2021/09/30 13:51:05;;;;;;;4.10;2.80;;;16.10;59.90;;;;;;5008437;28;20056;-76
2021/09/30 13:53:31;;;;;;;4.80;2.65;;;16.10;60.20;;;;;;5008893;28;20033;-75
2021/09/30 13:55:56;;;;;;;7.00;2.20;;;16.10;60.50;;;;;;5012386;28;20029;-76
2021/09/30 13:58:22;;;;;;;4.65;1.63;;;16.20;60.70;;;;;;5030825;28;20057;-75
2021/09/30 14:00:48;;;;;;;4.85;2.78;;;16.20;60.30;;;;;;5021138;28;20067;-75
2021/09/30 14:03:13;;;;;;;3.17;1.45;;;16.10;60.50;;;;;;5009339;28;20018;-77
2021/09/30 14:05:39;;;;;;;5.57;1.70;;;16.00;60.50;;;;;;5018887;28;20499;-76
2021/09/30 14:08:04;;;;;;;4.30;2.05;;;16.00;60.80;;;;;;5033747;28;20037;-76
2021/09/30 14:10:30;;;;;;;6.70;2.97;;;15.90;61.00;;;;;;5027943;28;20049;-76
2021/09/30 14:12:56;;;;;;;4.25;1.80;;;15.80;61.20;;;;;;5023214;28;20443;-76
2021/09/30 14:15:21;;;;;;;8.05;2.63;;;15.80;61.60;;;;;;5020247;28;20027;-77
2021/09/30 14:17:47;;;;;;;5.20;1.58;;;15.70;61.20;;;;;;5027610;28;20020;-76
2021/09/30 14:20:12;;;;;;;7.70;2.30;;;15.60;61.60;;;;;;5020694;28;21878;-75
2021/09/30 14:22:39;;;;;;;6.10;3.03;;;15.50;61.70;;;;;;5029437;28;20030;-75
2021/09/30 14:25:06;;;;;;;5.85;1.80;;;15.50;62.10;;;;;;5027675;28;20030;-77
2021/09/30 14:27:32;;;;;;;7.30;3.65;;;15.40;62.00;;;;;;5034043;28;20076;-76
2021/09/30 14:29:58;;;;;;;4.88;2.17;;;15.40;62.20;;;;;;5015939;28;20038;-77
2021/09/30 14:32:23;;;;;;;6.82;3.22;;;15.50;62.40;;;;;;5015436;28;20050;-75
2021/09/30 14:34:49;;;;;;;5.53;2.30;;;15.50;62.50;;;;;;5031765;28;20202;-74
2021/09/30 14:37:14;;;;;;;5.45;2.38;;;15.50;62.60;;;;;;5026476;28;20033;-75
2021/09/30 14:39:40;;;;;;;7.15;2.28;;;15.50;62.70;;;;;;5038476;28;20019;-76
2021/09/30 14:42:08;;;;;;;8.35;2.20;;;15.60;62.60;;;;;;5032997;28;20026;-74
2021/09/30 14:44:33;;;;;;;4.53;1.67;;;15.50;62.20;;;;;;5021816;28;20021;-77
2021/09/30 14:47:00;;;;;;;3.72;1.98;;;15.50;62.50;;;;;;5039593;28;20473;-76
2021/09/30 14:49:26;;;;;;;8.32;2.42;;;15.50;62.70;;;;;;5082297;28;20026;-74
2021/09/30 14:51:52;;;;;;;7.07;2.60;;;15.50;62.50;;;;;;5065210;28;20036;-76
2021/09/30 14:54:19;;;;;;;6.18;2.08;;;15.60;62.70;;;;;;5046513;28;20018;-75
2021/09/30 14:56:47;;;;;;;5.18;1.90;;;15.60;62.60;;;;;;5078168;28;20029;-76
2021/09/30 14:59:13;;;;;;;7.97;2.50;;;15.60;62.60;;;;;;5057965;28;20027;-76
2021/09/30 15:01:39;;;;;;;5.03;1.90;;;15.60;62.10;;;;;;5040003;28;20038;-75
2021/09/30 15:04:06;;;;;;;4.20;1.73;;;15.60;63.00;;;;;;5046869;28;20157;-75
2021/09/30 15:06:37;;;;;;;7.30;2.78;;;15.60;62.30;;;;;;5049785;28;20026;-75
2021/09/30 15:09:03;;;;;;;4.70;2.10;;;15.60;62.30;;;;;;5036162;28;20033;-75
2021/09/30 15:11:29;;;;;;;5.80;2.55;;;15.60;62.50;;;;;;5014046;28;20041;-74
2021/09/30 15:13:55;;;;;;;5.22;1.88;;;15.70;62.40;;;;;;5029823;28;20030;-74
2021/09/30 15:16:21;;;;;;;6.00;2.80;;;15.60;62.30;;;;;;5039144;28;20055;-74
2021/09/30 15:21:21;;;;;;;4.43;1.70;;;15.60;62.50;;;;;;5017639;28;20460;-75
2021/09/30 15:23:53;;;;;;;2.45;1.52;;;15.60;62.70;;;;;;5024168;28;20072;-76
2021/09/30 15:26:19;;;;;;;;;;;15.60;62.90;;;;;;5024056;28;20059;-76
2021/09/30 15:28:45;;;;;;;5.18;2.10;;;15.60;62.90;;;;;;5035404;28;19963;-76
2021/09/30 15:31:11;;;;;;;5.47;1.73;;;15.60;63.10;;;;;;5018787;28;20033;-78
2021/09/30 15:33:36;;;;;;;3.88;1.63;;;15.50;63.10;;;;;;5060359;28;20141;-76
2021/09/30 15:36:02;;;;;;;5.18;1.73;;;15.50;63.40;;;;;;5011872;28;20078;-77